createdAt,value
2023-08-30T00:01:45.154Z,16.01
2023-08-30T00:04:12.481Z,15.97
2023-08-30T00:06:39.727Z,15.95
2023-08-30T00:09:07.050Z,15.91
2023-08-30T00:11:34.294Z,15.85
2023-08-30T00:14:08.105Z,15.82
2023-08-30T00:16:35.772Z,15.77
2023-08-30T00:19:03.114Z,15.80
2023-08-30T00:21:31.190Z,15.83
2023-08-30T00:23:58.557Z,15.84
2023-08-30T00:26:26.507Z,15.81
2023-08-30T00:28:55.734Z,15.80
2023-08-30T00:31:23.885Z,15.90
2023-08-30T00:33:54.689Z,15.97
2023-08-30T00:36:23.160Z,16.04
2023-08-30T00:38:50.917Z,16.07
2023-08-30T00:41:18.345Z,16.05
2023-08-30T00:43:45.711Z,16.05
2023-08-30T00:46:14.411Z,16.04
2023-08-30T00:48:42.465Z,16.00
2023-08-30T00:51:10.263Z,16.06
2023-08-30T00:53:37.894Z,16.09
2023-08-30T00:56:05.719Z,16.07
2023-08-30T00:58:36.142Z,16.02
2023-08-30T01:01:08.291Z,16.01
2023-08-30T01:03:38.962Z,16.01
2023-08-30T01:06:06.815Z,16.02
2023-08-30T01:08:38.480Z,16.02
2023-08-30T01:11:18.766Z,16.00
2023-08-30T01:14:29.494Z,16.02
2023-08-30T01:16:58.484Z,16.04
2023-08-30T01:19:58.850Z,15.97
2023-08-30T01:23:06.543Z,15.91
2023-08-30T01:26:17.008Z,15.91
2023-08-30T01:28:45.938Z,15.90
2023-08-30T01:31:14.679Z,15.86
2023-08-30T01:33:44.024Z,15.81
2023-08-30T01:36:12.576Z,15.84
2023-08-30T01:38:41.627Z,15.87
2023-08-30T01:41:11.905Z,15.85
2023-08-30T01:43:45.064Z,15.86
2023-08-30T01:46:20.568Z,15.92
2023-08-30T01:48:50.024Z,15.92
2023-08-30T01:51:17.915Z,15.96
2023-08-30T01:55:40.971Z,15.96
2023-08-30T01:58:13.247Z,15.95
2023-08-30T02:00:41.297Z,15.84
2023-08-30T02:03:17.752Z,15.86
2023-08-30T02:06:12.569Z,15.89
2023-08-30T02:08:52.146Z,15.86
2023-08-30T02:11:28.680Z,15.88
2023-08-30T02:14:00.374Z,15.79
2023-08-30T02:16:29.930Z,15.77
2023-08-30T02:18:58.853Z,15.75
2023-08-30T02:21:27.927Z,15.77
2023-08-30T02:23:55.751Z,15.78
2023-08-30T02:26:23.506Z,15.78
2023-08-30T02:28:51.019Z,15.80
2023-08-30T02:31:18.484Z,15.82
2023-08-30T02:33:47.357Z,15.80
2023-08-30T02:36:14.816Z,15.74
2023-08-30T02:38:42.126Z,15.69
2023-08-30T02:41:11.275Z,15.70
2023-08-30T02:43:39.006Z,15.72
2023-08-30T02:46:06.772Z,15.68
2023-08-30T02:48:34.884Z,15.67
2023-08-30T02:51:02.609Z,15.63
2023-08-30T02:54:10.832Z,15.62
2023-08-30T02:56:38.255Z,15.65
2023-08-30T02:59:07.694Z,15.81
2023-08-30T03:01:36.641Z,15.87
2023-08-30T03:04:07.619Z,15.89
2023-08-30T03:06:36.037Z,15.92
2023-08-30T03:09:05.626Z,15.90
2023-08-30T03:11:35.909Z,15.87
2023-08-30T03:14:03.842Z,15.88
2023-08-30T03:16:31.262Z,15.92
2023-08-30T03:18:59.649Z,15.95
2023-08-30T03:21:27.261Z,15.97
2023-08-30T03:23:57.707Z,16.02
2023-08-30T03:26:25.222Z,16.05
2023-08-30T03:28:54.785Z,16.04
2023-08-30T03:31:23.659Z,16.06
2023-08-30T03:33:52.264Z,16.05
2023-08-30T03:36:20.530Z,16.08
2023-08-30T03:38:48.211Z,16.12
2023-08-30T03:41:16.226Z,16.13
2023-08-30T03:43:46.059Z,16.12
2023-08-30T03:46:13.819Z,16.16
2023-08-30T03:48:41.580Z,16.15
2023-08-30T03:51:09.257Z,16.14
2023-08-30T03:53:37.143Z,16.09
2023-08-30T03:56:05.625Z,16.06
2023-08-30T03:58:32.959Z,16.05
2023-08-30T04:01:00.288Z,16.04
2023-08-30T04:03:28.367Z,16.04
2023-08-30T04:06:00.638Z,16.07
2023-08-30T04:08:53.051Z,16.04
2023-08-30T04:11:21.886Z,16.07
2023-08-30T04:13:49.135Z,16.18
2023-08-30T04:16:16.684Z,16.24
2023-08-30T04:18:44.090Z,16.28
2023-08-30T04:21:11.457Z,16.33
2023-08-30T04:23:38.753Z,16.36
2023-08-30T04:26:06.349Z,16.15
2023-08-30T04:28:33.819Z,16.08
2023-08-30T04:31:01.268Z,16.18
2023-08-30T04:33:28.884Z,16.21
2023-08-30T04:36:02.160Z,16.21
2023-08-30T04:42:52.646Z,16.08
2023-08-30T04:45:24.957Z,16.06
2023-08-30T04:49:07.865Z,16.16
2023-08-30T04:51:58.548Z,16.18
2023-08-30T04:54:51.011Z,16.16
2023-08-30T04:57:38.431Z,16.14
2023-08-30T05:00:53.003Z,16.14
2023-08-30T05:06:35.196Z,16.22
2023-08-30T05:09:05.736Z,16.32
2023-08-30T05:11:34.573Z,16.30
2023-08-30T05:14:30.887Z,16.37
2023-08-30T05:17:04.223Z,16.41
2023-08-30T05:20:23.683Z,16.41
2023-08-30T05:22:56.840Z,16.36
2023-08-30T05:25:38.932Z,16.34
2023-08-30T05:32:37.111Z,16.39
2023-08-30T05:36:26.667Z,16.58
2023-08-30T05:42:37.434Z,16.58
2023-08-30T05:45:06.413Z,16.65
2023-08-30T05:48:36.375Z,16.70
2023-08-30T05:51:24.795Z,16.67
2023-08-30T05:54:08.092Z,16.71
2023-08-30T05:57:17.408Z,16.73
2023-08-30T05:59:46.136Z,16.75
2023-08-30T06:02:14.004Z,16.74
2023-08-30T06:04:42.371Z,16.74
2023-08-30T06:07:33.814Z,16.69
2023-08-30T06:10:10.050Z,16.71
2023-08-30T06:12:38.412Z,16.76
2023-08-30T06:15:07.800Z,16.77
2023-08-30T06:18:23.031Z,16.80
2023-08-30T06:21:03.449Z,16.83
2023-08-30T06:26:21.641Z,17.07
2023-08-30T06:29:19.207Z,16.97
2023-08-30T06:31:57.124Z,16.92
2023-08-30T06:34:29.099Z,17.05
2023-08-30T06:37:51.166Z,17.19
2023-08-30T06:40:20.677Z,17.35
2023-08-30T06:43:00.530Z,17.43
2023-08-30T06:45:32.414Z,17.49
2023-08-30T06:48:00.681Z,17.52
2023-08-30T06:50:28.336Z,17.53
2023-08-30T06:53:05.632Z,17.56
2023-08-30T06:56:52.220Z,17.63
2023-08-30T06:59:40.491Z,17.61
2023-08-30T07:02:11.784Z,17.68
2023-08-30T07:04:39.247Z,17.78
2023-08-30T07:07:06.971Z,17.82
2023-08-30T07:09:34.780Z,17.87
2023-08-30T07:12:06.173Z,17.90
2023-08-30T07:14:36.984Z,17.99
2023-08-30T07:17:05.423Z,18.11
2023-08-30T07:19:33.117Z,18.15
2023-08-30T07:22:49.309Z,18.15
2023-08-30T07:25:38.002Z,18.18
2023-08-30T07:28:08.186Z,18.25
2023-08-30T07:30:36.654Z,18.32
2023-08-30T07:33:05.865Z,18.39
2023-08-30T07:35:34.385Z,18.48
2023-08-30T07:38:02.041Z,18.52
2023-08-30T07:40:30.420Z,18.39
2023-08-30T07:42:59.805Z,18.36
2023-08-30T07:45:28.057Z,18.42
2023-08-30T07:47:57.239Z,18.46
2023-08-30T07:50:25.298Z,18.51
2023-08-30T07:52:54.067Z,18.62
2023-08-30T07:55:22.046Z,18.54
2023-08-30T07:57:49.889Z,18.58
2023-08-30T08:00:17.939Z,18.53
2023-08-30T08:02:46.032Z,18.67
2023-08-30T08:05:25.784Z,18.83
2023-08-30T08:07:58.108Z,18.85
2023-08-30T08:10:26.165Z,18.80
2023-08-30T08:12:59.538Z,18.86
2023-08-30T08:15:32.066Z,19.02
2023-08-30T08:17:59.686Z,18.96
2023-08-30T08:20:31.267Z,19.00
2023-08-30T08:23:02.365Z,19.08
2023-08-30T08:25:30.579Z,19.13
2023-08-30T08:28:01.298Z,19.27
2023-08-30T08:30:29.189Z,19.28
2023-08-30T08:33:01.118Z,19.29
2023-08-30T08:35:32.041Z,19.35
2023-08-30T08:38:02.331Z,19.46
2023-08-30T08:40:41.851Z,19.57
2023-08-30T08:43:14.197Z,19.50
2023-08-30T08:45:58.490Z,19.49
2023-08-30T08:48:32.719Z,19.61
2023-08-30T08:51:25.931Z,19.56
2023-08-30T08:53:54.115Z,19.44
2023-08-30T08:56:50.001Z,19.48
2023-08-30T08:59:26.292Z,19.60
2023-08-30T09:01:54.596Z,19.60
2023-08-30T09:04:26.227Z,19.68
2023-08-30T09:07:04.404Z,19.75
2023-08-30T09:09:38.097Z,19.81
2023-08-30T09:12:05.941Z,19.78
2023-08-30T09:14:33.730Z,19.90
2023-08-30T09:19:49.824Z,20.17
2023-08-30T09:22:17.275Z,20.32
2023-08-30T09:24:48.205Z,20.37
2023-08-30T09:27:15.840Z,20.37
2023-08-30T09:29:47.056Z,20.39
2023-08-30T09:32:27.357Z,20.49
2023-08-30T09:35:05.316Z,20.46
2023-08-30T09:37:32.849Z,20.44
2023-08-30T09:40:12.427Z,20.48
2023-08-30T09:43:13.492Z,20.61
2023-08-30T09:46:08.269Z,20.64
2023-08-30T09:48:49.109Z,20.75
2023-08-30T09:51:26.025Z,20.72
2023-08-30T09:54:06.111Z,20.78
2023-08-30T09:59:20.843Z,20.88
2023-08-30T10:02:12.945Z,21.00
2023-08-30T10:05:06.563Z,21.11
2023-08-30T10:07:41.850Z,21.25
2023-08-30T10:10:12.219Z,21.59
2023-08-30T10:12:48.006Z,21.62
2023-08-30T10:15:30.661Z,21.68
2023-08-30T10:18:02.181Z,21.63
2023-08-30T10:20:31.653Z,21.90
2023-08-30T10:23:07.208Z,21.72
2023-08-30T10:25:47.365Z,22.01
2023-08-30T10:31:19.659Z,22.47
2023-08-30T10:34:00.816Z,22.70
2023-08-30T10:36:28.601Z,22.87
2023-08-30T10:38:57.225Z,22.59
2023-08-30T10:41:27.629Z,22.34
2023-08-30T10:43:59.905Z,22.32
2023-08-30T10:47:06.598Z,22.80
2023-08-30T10:49:43.698Z,22.98
2023-08-30T10:52:47.979Z,22.92
2023-08-30T10:55:54.772Z,22.79
2023-08-30T10:58:23.064Z,22.76
2023-08-30T11:01:23.117Z,23.19
2023-08-30T11:04:44.140Z,23.57
2023-08-30T11:07:13.346Z,25.15
2023-08-30T11:10:06.156Z,26.07
2023-08-30T11:12:48.970Z,27.33
2023-08-30T11:19:13.218Z,27.42
2023-08-30T11:22:25.575Z,26.34
2023-08-30T11:25:13.621Z,28.19
2023-08-30T11:28:06.410Z,27.32
2023-08-30T11:30:34.264Z,24.67
2023-08-30T11:33:04.067Z,24.39
2023-08-30T11:35:32.898Z,24.53
2023-08-30T11:38:10.308Z,23.93
2023-08-30T11:40:40.387Z,23.81
2023-08-30T11:43:09.152Z,24.22
2023-08-30T11:45:40.753Z,24.03
2023-08-30T11:48:10.046Z,23.81
2023-08-30T11:50:50.160Z,23.93
2023-08-30T11:53:18.675Z,24.02
2023-08-30T11:55:46.950Z,24.30
2023-08-30T11:58:14.176Z,24.34
2023-08-30T12:00:56.058Z,24.11
2023-08-30T12:03:37.781Z,24.10
2023-08-30T12:06:55.326Z,23.97
2023-08-30T12:09:23.117Z,23.75
2023-08-30T12:11:53.782Z,23.24
2023-08-30T12:15:12.589Z,23.67
2023-08-30T12:17:41.206Z,23.96
2023-08-30T12:20:17.686Z,24.18
2023-08-30T12:23:35.020Z,23.62
2023-08-30T12:26:14.263Z,24.12
2023-08-30T12:28:45.746Z,24.42
2023-08-30T12:31:13.790Z,24.17
2023-08-30T12:33:47.345Z,24.40
2023-08-30T12:36:14.825Z,24.42
2023-08-30T12:38:42.066Z,24.72
2023-08-30T12:41:16.231Z,24.32
2023-08-30T12:44:13.005Z,24.00
2023-08-30T12:46:40.772Z,24.17
2023-08-30T12:49:16.485Z,24.35
2023-08-30T12:51:43.994Z,24.49
2023-08-30T12:54:11.764Z,24.50
2023-08-30T12:56:39.226Z,24.30
2023-08-30T12:59:10.341Z,24.77
2023-08-30T13:01:40.932Z,25.24
2023-08-30T13:04:10.234Z,24.13
2023-08-30T13:06:37.753Z,24.29
2023-08-30T13:09:05.223Z,23.89
2023-08-30T13:12:47.277Z,24.11
2023-08-30T13:14:43.228Z,24.64
2023-08-30T13:17:14.704Z,24.66
2023-08-30T13:19:43.152Z,24.72
2023-08-30T13:22:11.166Z,24.84
2023-08-30T13:24:38.452Z,24.97
2023-08-30T13:27:05.941Z,24.53
2023-08-30T13:29:33.506Z,24.78
2023-08-30T13:32:04.396Z,24.88
2023-08-30T13:34:32.815Z,24.95
2023-08-30T13:37:00.373Z,25.16
2023-08-30T13:39:28.314Z,25.54
2023-08-30T13:41:57.524Z,24.68
2023-08-30T13:44:25.597Z,25.08
2023-08-30T13:46:56.028Z,25.15
2023-08-30T13:49:26.385Z,25.18
2023-08-30T13:52:07.135Z,25.26
2023-08-30T13:54:35.247Z,25.73
2023-08-30T13:57:12.222Z,26.50
2023-08-30T13:59:53.497Z,26.53
2023-08-30T14:02:21.542Z,26.39
2023-08-30T14:04:50.526Z,25.62
2023-08-30T14:07:18.395Z,26.36
2023-08-30T14:09:49.199Z,26.88
2023-08-30T14:12:41.663Z,27.72
2023-08-30T14:15:36.305Z,29.51
2023-08-30T14:19:24.635Z,31.90
2023-08-30T14:21:55.524Z,32.42
2023-08-30T14:27:35.953Z,32.82
2023-08-30T14:30:04.335Z,30.27
2023-08-30T14:32:31.623Z,28.18
2023-08-30T14:35:03.672Z,26.55
2023-08-30T14:37:31.440Z,29.48
2023-08-30T14:40:01.792Z,30.35
2023-08-30T14:42:29.097Z,30.50
2023-08-30T14:44:56.323Z,29.79
2023-08-30T14:47:26.978Z,31.04
2023-08-30T14:49:57.618Z,29.98
2023-08-30T14:55:50.913Z,27.58
2023-08-30T14:59:35.108Z,29.49
2023-08-30T15:02:18.774Z,30.20
2023-08-30T15:04:50.369Z,29.75
2023-08-30T15:08:03.481Z,29.04
2023-08-30T15:10:44.547Z,29.37
2023-08-30T15:13:19.000Z,30.91
2023-08-30T15:15:59.833Z,30.37
2023-08-30T15:18:34.556Z,28.40
2023-08-30T15:21:44.669Z,31.44
2023-08-30T15:24:18.227Z,28.87
2023-08-30T15:29:38.567Z,30.43
2023-08-30T15:31:54.049Z,30.47
2023-08-30T15:34:51.680Z,32.49
2023-08-30T15:37:20.851Z,31.30
2023-08-30T15:40:38.257Z,31.37
2023-08-30T15:47:17.016Z,30.95
2023-08-30T15:49:54.998Z,31.07
2023-08-30T15:56:49.289Z,31.87
2023-08-30T15:59:17.017Z,29.82
2023-08-30T16:01:44.371Z,29.47
2023-08-30T16:04:54.576Z,30.19
2023-08-30T16:07:21.998Z,29.80
2023-08-30T16:09:49.412Z,31.93
2023-08-30T16:12:16.765Z,32.74
2023-08-30T16:14:43.991Z,31.10
2023-08-30T16:17:11.289Z,31.90
2023-08-30T16:19:38.504Z,30.79
2023-08-30T16:22:05.684Z,29.04
2023-08-30T16:24:33.930Z,28.93
2023-08-30T16:27:01.334Z,30.24
2023-08-30T16:29:28.888Z,29.90
2023-08-30T16:31:56.342Z,30.53
2023-08-30T16:34:23.685Z,29.23
2023-08-30T16:36:51.323Z,28.24
2023-08-30T16:39:18.936Z,28.78
2023-08-30T16:41:46.425Z,28.55
2023-08-30T16:44:13.669Z,28.49
2023-08-30T16:46:40.947Z,29.84
2023-08-30T16:49:10.805Z,29.52
2023-08-30T16:51:38.890Z,29.90
2023-08-30T16:54:07.164Z,29.09
2023-08-30T16:56:34.377Z,28.57
2023-08-30T16:59:01.624Z,28.80
2023-08-30T17:01:28.897Z,28.77
2023-08-30T17:03:56.168Z,28.87
2023-08-30T17:06:23.401Z,28.50
2023-08-30T17:08:50.763Z,28.00
2023-08-30T17:11:18.003Z,28.16
2023-08-30T17:13:45.310Z,27.78
2023-08-30T17:16:12.544Z,28.30
2023-08-30T17:18:40.783Z,27.99
2023-08-30T17:21:11.220Z,27.70
2023-08-30T17:23:39.971Z,26.88
2023-08-30T17:26:07.905Z,27.28
2023-08-30T17:28:36.841Z,27.50
2023-08-30T17:31:06.942Z,27.48
2023-08-30T17:33:36.178Z,27.17
2023-08-30T17:36:04.901Z,26.56
2023-08-30T17:38:37.308Z,25.91
2023-08-30T17:41:12.033Z,25.47
2023-08-30T17:43:39.545Z,25.18
2023-08-30T17:46:07.106Z,25.06
2023-08-30T17:48:35.259Z,24.87
2023-08-30T17:51:04.855Z,24.70
2023-08-30T17:53:32.358Z,24.42
2023-08-30T17:56:00.997Z,24.36
2023-08-30T17:58:29.051Z,24.24
2023-08-30T18:00:59.020Z,24.13
2023-08-30T18:03:30.114Z,23.98
2023-08-30T18:06:05.496Z,23.83
2023-08-30T18:08:32.752Z,23.70
2023-08-30T18:10:59.929Z,23.56
2023-08-30T18:13:27.148Z,23.46
2023-08-30T18:15:54.604Z,23.32
2023-08-30T18:18:21.928Z,23.15
2023-08-30T18:20:49.134Z,23.02
2023-08-30T18:23:17.268Z,22.87
2023-08-30T18:25:44.484Z,22.75
2023-08-30T18:28:11.964Z,22.62
2023-08-30T18:30:39.224Z,22.53
2023-08-30T18:33:06.544Z,22.47
2023-08-30T18:35:34.011Z,22.41
2023-08-30T18:38:04.084Z,22.37
2023-08-30T18:40:31.580Z,22.32
2023-08-30T18:42:58.984Z,22.21
2023-08-30T18:45:26.184Z,22.14
2023-08-30T18:47:53.521Z,22.02
2023-08-30T18:50:20.865Z,21.93
2023-08-30T18:52:48.351Z,21.83
2023-08-30T18:55:16.126Z,21.75
2023-08-30T18:57:43.570Z,21.64
2023-08-30T19:00:11.934Z,21.61
2023-08-30T19:02:39.674Z,21.55
2023-08-30T19:05:08.238Z,21.50
2023-08-30T19:07:35.450Z,21.48
2023-08-30T19:10:03.828Z,21.45
2023-08-30T19:12:31.159Z,21.36
2023-08-30T19:14:58.382Z,21.32
2023-08-30T19:17:25.832Z,21.22
2023-08-30T19:19:53.072Z,21.17
2023-08-30T19:22:21.990Z,21.14
2023-08-30T19:24:49.521Z,21.16
2023-08-30T19:27:17.107Z,21.15
2023-08-30T19:29:45.944Z,21.14
2023-08-30T19:32:13.223Z,21.13
2023-08-30T19:34:40.455Z,21.12
2023-08-30T19:37:07.605Z,21.10
2023-08-30T19:39:34.761Z,21.09
2023-08-30T19:42:01.939Z,21.07
2023-08-30T19:44:29.143Z,21.05
2023-08-30T19:46:59.544Z,21.04
2023-08-30T19:49:26.960Z,21.06
2023-08-30T19:51:54.882Z,21.05
2023-08-30T19:54:22.059Z,20.97
2023-08-30T19:56:49.361Z,20.91
2023-08-30T19:59:16.559Z,20.84
2023-08-30T20:01:43.754Z,20.82
2023-08-30T20:04:11.027Z,20.79
2023-08-30T20:06:38.771Z,20.75
2023-08-30T20:09:06.120Z,20.69
2023-08-30T20:11:33.305Z,20.65
2023-08-30T20:14:00.463Z,20.62
2023-08-30T20:16:27.676Z,20.64
2023-08-30T20:18:54.997Z,20.64
2023-08-30T20:21:22.181Z,20.59
2023-08-30T20:23:49.641Z,20.49
2023-08-30T20:26:16.941Z,20.42
2023-08-30T20:28:46.985Z,20.39
2023-08-30T20:31:15.637Z,20.31
2023-08-30T20:33:43.718Z,20.30
2023-08-30T20:36:10.793Z,20.22
2023-08-30T20:38:38.008Z,20.15
2023-08-30T20:41:05.180Z,20.20
2023-08-30T20:43:32.758Z,20.22
2023-08-30T20:46:00.454Z,20.34
2023-08-30T20:48:29.160Z,20.40
2023-08-30T20:50:59.124Z,20.31
2023-08-30T20:53:40.891Z,20.27
2023-08-30T20:56:11.665Z,20.25
2023-08-30T20:58:44.828Z,20.20
2023-08-30T21:01:12.859Z,20.17
2023-08-30T21:03:40.654Z,20.12
2023-08-30T21:06:10.848Z,20.10
2023-08-30T21:08:39.259Z,20.11
2023-08-30T21:11:09.992Z,20.07
2023-08-30T21:13:37.433Z,20.08
2023-08-30T21:16:05.443Z,20.06
2023-08-30T21:18:32.759Z,20.00
2023-08-30T21:21:00.852Z,20.03
2023-08-30T21:23:28.604Z,19.92
2023-08-30T21:25:55.925Z,19.92
2023-08-30T21:28:23.165Z,19.89
2023-08-30T21:30:50.410Z,19.88
2023-08-30T21:33:19.279Z,19.78
2023-08-30T21:35:47.707Z,19.73
2023-08-30T21:38:20.205Z,19.65
2023-08-30T21:40:49.088Z,19.57
2023-08-30T21:43:16.556Z,19.52
2023-08-30T21:45:44.884Z,19.48
2023-08-30T21:48:12.713Z,19.38
2023-08-30T21:50:40.821Z,19.29
2023-08-30T21:53:08.558Z,19.30
2023-08-30T21:55:35.970Z,19.24
2023-08-30T21:58:04.458Z,19.17
2023-08-30T22:00:31.678Z,19.12
2023-08-30T22:02:59.034Z,19.16
2023-08-30T22:05:26.318Z,19.16
2023-08-30T22:07:53.508Z,19.07
2023-08-30T22:10:21.063Z,19.03
2023-08-30T22:12:49.600Z,18.89
2023-08-30T22:15:17.524Z,18.81
2023-08-30T22:17:48.248Z,18.78
2023-08-30T22:20:21.190Z,18.75
2023-08-30T22:22:49.201Z,18.77
2023-08-30T22:25:17.166Z,18.78
2023-08-30T22:27:45.349Z,18.77
2023-08-30T22:30:15.880Z,18.71
2023-08-30T22:32:46.716Z,18.71
2023-08-30T22:35:17.090Z,18.68
2023-08-30T22:37:44.950Z,18.67
2023-08-30T22:40:13.067Z,18.62
2023-08-30T22:42:41.499Z,18.60
2023-08-30T22:45:10.379Z,18.56
2023-08-30T22:47:37.868Z,18.55
2023-08-30T22:50:06.506Z,18.49
2023-08-30T22:52:35.576Z,18.48
2023-08-30T22:55:04.660Z,18.48
2023-08-30T22:57:32.144Z,18.44
2023-08-30T23:00:06.401Z,18.43
2023-08-30T23:02:34.668Z,18.41
2023-08-30T23:05:04.558Z,18.35
2023-08-30T23:07:31.770Z,18.35
2023-08-30T23:10:01.591Z,18.36
2023-08-30T23:12:28.883Z,18.31
2023-08-30T23:14:58.066Z,18.32
2023-08-30T23:17:25.410Z,18.30
2023-08-30T23:19:52.654Z,18.33
2023-08-30T23:22:20.005Z,18.29
2023-08-30T23:24:47.556Z,18.27
2023-08-30T23:27:14.960Z,18.28
2023-08-30T23:29:42.137Z,18.23
2023-08-30T23:32:09.385Z,18.17
2023-08-30T23:34:36.776Z,18.12
2023-08-30T23:37:04.178Z,18.05
2023-08-30T23:39:31.407Z,18.03
2023-08-30T23:41:59.696Z,17.99
2023-08-30T23:44:26.896Z,17.99
2023-08-30T23:46:54.125Z,17.97
2023-08-30T23:49:21.280Z,17.92
2023-08-30T23:51:48.452Z,17.82
2023-08-30T23:54:15.620Z,17.76
2023-08-30T23:56:42.847Z,17.75
2023-08-30T23:59:11.404Z,17.78
